Airfield :
LOGIN :

Register | Disclaimer

   EN    FR    IT 

 










Legend :    VFR   Marginal VFR   IFR   Intensive IFR   Very Intensive IFR
Visi :
Ceiling :
>= 8 km
>= 3000ft
5 to 8 km
1000 to 3000 ft
1500m to 5 km
500 to 1000 ft
800 to 1500m
200 to 500 ft
< 800m
< 200 ft
Symbols :   Thunderstorms  Fog  Heavy snow  Heavy precipitations  Wind > 20 kt
SIGMETs :     Misc.  Thunderstorms  Icing  Turbulence  Mountain Waves  Volcanic Ashes






- Airport Elevation : 3 ft
- IATA code : LWR


EHLW - Leuuwarden Air Base

CURRENT METAR :
  • 071955Z AUTO 19010KT 160V220 9999 NCD 13/11 Q1014 BLU

EXPIRED METARs :
  • 071925Z AUTO 20009KT 160V240 9999 SCT054 SCT061 BKN230 13/11 Q1014 BLU
  • 071855Z AUTO 20009KT 160V250 9999 BKN026 OVC029 14/11 Q1015 BLU
  • 071825Z AUTO 20010KT 170V230 9999 SCT060 BKN210 14/11 Q1015 BLU
  • 071755Z AUTO 20011KT 170V230 9999 FEW062 14/11 Q1015 BLU
  • 071733Z AUTO 20011KT 150V230 9999 FEW023 SCT026 OVC060 15/11 Q1015 BLU
  • 071725Z AUTO 20011KT 150V230 9999 BKN022 OVC026 14/11 Q1015 WHT
  • 071703Z AUTO 20010KT 160V230 9999 SCT022 SCT026 BKN032 15/11 Q1015 WHT

TAF TAF EHLW
Valid from the 07 at 17:00 until the 08 at 05:00 UTC


071645Z 0717/0805 20012KT 9999 FEW018 BKN020
BECMG 0722/0724 27010KT
TEMPO 0721/0801 27015G25KT 4500 RA SHRA FEW012 BKN015 SCT020CB
PROB30
TEMPO 0723/0801 27018G30KT 3500 TSRA FEW010 SCT012 BKN018CB
PROB30
TEMPO 0804/0805 27015G25KT 4000 SHRA SCT020CB BKN030



MET'MAP, your aeronautical weather chart ! - Copyright ORBIFLY December 2007 - Disclaimer

ORBIFLY MET'MAP TEAM :

Programming & Development : Alexandra Zaïnal
Original concept : Baudouin d'Aumeries
Technical & hardware support : Manuel Goepfert
Assistance : Marc-Olivier Méhu




SOURCES & CREDITS :

   NOAA